createdAt,value
2018-09-29T00:00:03.691Z,17.01
2018-09-29T00:00:15.500Z,17.01
2018-09-29T00:00:29.001Z,17.01
2018-09-29T00:00:41.888Z,17.02
2018-09-29T00:00:53.652Z,17.01
2018-09-29T00:01:05.416Z,17.02
2018-09-29T00:01:17.186Z,17.02
2018-09-29T00:01:29.044Z,17.02
2018-09-29T00:01:40.810Z,17.02
2018-09-29T00:01:52.568Z,17.02
2018-09-29T00:02:04.346Z,17.01
2018-09-29T00:02:16.118Z,17.03
2018-09-29T00:02:27.904Z,17.02
2018-09-29T00:02:39.666Z,17.01
2018-09-29T00:02:51.429Z,17.01
2018-09-29T00:03:03.325Z,17.00
2018-09-29T00:03:15.107Z,17.01
2018-09-29T00:03:26.818Z,17.00
2018-09-29T00:03:38.590Z,17.00
2018-09-29T00:03:50.342Z,17.00
2018-09-29T00:04:02.108Z,17.01
2018-09-29T00:04:13.850Z,17.00
2018-09-29T00:04:25.605Z,17.00
2018-09-29T00:04:37.373Z,17.01
2018-09-29T00:04:49.135Z,17.01
2018-09-29T00:05:00.925Z,17.01
2018-09-29T00:05:12.689Z,17.01
2018-09-29T00:05:24.464Z,17.00
2018-09-29T00:05:36.215Z,17.01
2018-09-29T00:05:47.986Z,17.00
2018-09-29T00:05:59.748Z,17.00
2018-09-29T00:06:11.502Z,17.01
2018-09-29T00:06:23.353Z,17.00
2018-09-29T00:06:35.118Z,17.00
2018-09-29T00:06:46.863Z,17.01
2018-09-29T00:06:58.632Z,17.01
2018-09-29T00:07:10.409Z,17.01
2018-09-29T00:07:22.191Z,17.01
2018-09-29T00:07:34.119Z,17.02
2018-09-29T00:07:45.880Z,17.01
2018-09-29T00:07:57.647Z,17.01
2018-09-29T00:08:09.411Z,17.02
2018-09-29T00:08:21.179Z,17.01
2018-09-29T00:08:32.946Z,17.01
2018-09-29T00:08:44.696Z,17.00
2018-09-29T00:08:56.451Z,17.01
2018-09-29T00:09:08.558Z,17.02
2018-09-29T00:09:20.330Z,17.02
2018-09-29T00:09:32.085Z,17.02
2018-09-29T00:09:43.840Z,17.03
2018-09-29T00:09:55.591Z,17.02
2018-09-29T00:10:07.352Z,17.02
2018-09-29T00:10:19.177Z,17.03
2018-09-29T00:10:30.895Z,17.02
2018-09-29T00:10:42.653Z,17.02
2018-09-29T00:10:54.387Z,17.01
2018-09-29T00:11:06.170Z,17.02
2018-09-29T00:11:17.938Z,17.02
2018-09-29T00:11:29.698Z,17.01
2018-09-29T00:11:41.456Z,17.01
2018-09-29T00:11:53.232Z,17.00
2018-09-29T00:12:04.984Z,17.00
2018-09-29T00:12:16.755Z,17.00
2018-09-29T00:12:28.519Z,17.01
2018-09-29T00:12:40.283Z,17.01
2018-09-29T00:12:52.031Z,17.01
2018-09-29T00:13:03.780Z,17.00
2018-09-29T00:13:15.609Z,17.00
2018-09-29T00:13:27.369Z,17.02
2018-09-29T00:13:39.128Z,17.01
2018-09-29T00:13:50.900Z,16.99
2018-09-29T00:14:02.654Z,16.99
2018-09-29T00:14:14.437Z,16.99
2018-09-29T00:14:26.201Z,16.99
2018-09-29T00:14:37.960Z,17.00
2018-09-29T00:14:49.709Z,16.99
2018-09-29T00:15:01.480Z,16.99
2018-09-29T00:15:13.235Z,16.99
2018-09-29T00:15:25.010Z,16.98
2018-09-29T00:15:36.770Z,16.99
2018-09-29T00:15:48.536Z,16.99
2018-09-29T00:16:00.290Z,16.99
2018-09-29T00:16:12.038Z,16.98
2018-09-29T00:16:23.942Z,17.00
2018-09-29T00:16:35.940Z,16.99
2018-09-29T00:16:47.698Z,16.99
2018-09-29T00:16:59.448Z,16.99
2018-09-29T00:17:11.198Z,16.99
2018-09-29T00:17:22.953Z,16.99
2018-09-29T00:17:34.905Z,16.99
2018-09-29T00:17:46.669Z,17.00
2018-09-29T00:17:58.433Z,17.00
2018-09-29T00:18:10.195Z,17.01
2018-09-29T00:18:21.954Z,17.00
2018-09-29T00:18:33.736Z,17.00
2018-09-29T00:18:45.515Z,17.00
2018-09-29T00:18:57.284Z,17.00
2018-09-29T00:19:09.064Z,17.01
2018-09-29T00:19:20.844Z,17.00
2018-09-29T00:19:32.616Z,17.00
2018-09-29T00:19:44.380Z,17.00
2018-09-29T00:19:56.144Z,17.00
2018-09-29T00:20:07.929Z,16.99
2018-09-29T00:20:19.723Z,16.99
2018-09-29T00:20:31.516Z,16.99
2018-09-29T00:20:43.267Z,16.99
2018-09-29T00:20:55.030Z,16.99
2018-09-29T00:21:06.783Z,17.00
2018-09-29T00:21:18.583Z,17.00
2018-09-29T00:21:30.353Z,17.00
2018-09-29T00:21:42.098Z,16.99
2018-09-29T00:21:53.861Z,16.99
2018-09-29T00:22:05.624Z,16.99
2018-09-29T00:22:17.395Z,16.99
2018-09-29T00:22:29.160Z,16.99
2018-09-29T00:22:40.927Z,17.00
2018-09-29T00:22:52.684Z,16.99
2018-09-29T00:23:04.447Z,17.00
2018-09-29T00:23:16.205Z,16.99
2018-09-29T00:23:27.956Z,17.00
2018-09-29T00:23:39.704Z,17.00
2018-09-29T00:23:51.490Z,16.99
2018-09-29T00:24:03.269Z,17.00
2018-09-29T00:24:15.052Z,17.01
2018-09-29T00:24:26.819Z,17.00
2018-09-29T00:24:38.586Z,17.00
2018-09-29T00:24:50.345Z,17.01
2018-09-29T00:25:02.106Z,17.00
2018-09-29T00:25:13.849Z,16.99
2018-09-29T00:25:25.600Z,17.01
2018-09-29T00:25:37.374Z,17.00
2018-09-29T00:25:49.144Z,17.00
2018-09-29T00:26:00.903Z,17.00
2018-09-29T00:26:12.658Z,16.99
2018-09-29T00:26:24.394Z,16.99
2018-09-29T00:26:36.153Z,16.99
2018-09-29T00:26:47.920Z,16.99
2018-09-29T00:26:59.672Z,16.98
2018-09-29T00:27:11.422Z,16.99
2018-09-29T00:27:23.211Z,16.98
2018-09-29T00:27:34.972Z,16.98
2018-09-29T00:27:46.723Z,16.98
2018-09-29T00:27:58.479Z,16.98
2018-09-29T00:28:10.235Z,16.98
2018-09-29T00:28:21.984Z,16.99
2018-09-29T00:28:33.733Z,16.99
2018-09-29T00:28:45.508Z,16.98
2018-09-29T00:28:57.273Z,16.98
2018-09-29T00:29:09.015Z,16.98
2018-09-29T00:29:20.792Z,16.98
2018-09-29T00:29:32.619Z,16.98
2018-09-29T00:29:44.386Z,16.98
2018-09-29T00:29:56.146Z,16.98
2018-09-29T00:30:07.908Z,16.98
2018-09-29T00:30:19.655Z,16.97
2018-09-29T00:30:31.421Z,16.98
2018-09-29T00:30:43.186Z,16.97
2018-09-29T00:30:54.957Z,16.97
2018-09-29T00:31:06.720Z,16.97
2018-09-29T00:31:18.480Z,16.98
2018-09-29T00:31:30.243Z,16.98
2018-09-29T00:31:41.999Z,16.98
2018-09-29T00:31:53.755Z,16.98
2018-09-29T00:32:05.503Z,16.98
2018-09-29T00:32:17.273Z,16.97
2018-09-29T00:32:29.014Z,16.97
2018-09-29T00:32:40.774Z,16.98
2018-09-29T00:32:52.555Z,16.98
2018-09-29T00:33:04.295Z,16.98
2018-09-29T00:33:16.036Z,16.98
2018-09-29T00:33:27.797Z,16.98
2018-09-29T00:33:39.582Z,16.98
2018-09-29T00:33:51.337Z,16.98
2018-09-29T00:34:03.091Z,16.98
2018-09-29T00:34:14.838Z,16.97
2018-09-29T00:34:26.587Z,16.97
2018-09-29T00:34:38.382Z,16.98
2018-09-29T00:34:50.146Z,16.98
2018-09-29T00:35:01.905Z,16.97
2018-09-29T00:35:13.669Z,16.98
2018-09-29T00:35:25.433Z,16.98
2018-09-29T00:35:37.195Z,16.97
2018-09-29T00:35:48.953Z,16.99
2018-09-29T00:36:00.704Z,16.99
2018-09-29T00:36:12.464Z,16.99
2018-09-29T00:36:24.240Z,16.99
2018-09-29T00:36:36.016Z,16.99
2018-09-29T00:36:47.767Z,16.99
2018-09-29T00:36:59.527Z,16.99
2018-09-29T00:37:11.283Z,16.98
2018-09-29T00:37:23.045Z,16.98
2018-09-29T00:37:34.810Z,16.99
2018-09-29T00:37:46.576Z,16.98
2018-09-29T00:37:58.385Z,16.98
2018-09-29T00:38:10.163Z,16.98
2018-09-29T00:38:21.916Z,16.98
2018-09-29T00:38:33.657Z,16.99
2018-09-29T00:38:45.416Z,16.98
2018-09-29T00:38:57.199Z,16.98
2018-09-29T00:39:09.253Z,16.98
2018-09-29T00:39:21.027Z,16.97
2018-09-29T00:39:32.788Z,16.98
2018-09-29T00:39:44.574Z,16.98
2018-09-29T00:39:56.326Z,16.97
2018-09-29T00:40:08.097Z,16.97
2018-09-29T00:40:19.862Z,16.97
2018-09-29T00:40:31.612Z,16.97
2018-09-29T00:40:43.382Z,16.97
2018-09-29T00:40:55.122Z,16.98
2018-09-29T00:41:06.887Z,16.97
2018-09-29T00:41:18.660Z,16.96
2018-09-29T00:41:30.418Z,16.98
2018-09-29T00:41:42.166Z,16.97
2018-09-29T00:41:53.927Z,16.97
2018-09-29T00:42:05.679Z,16.98
2018-09-29T00:42:17.440Z,16.98
2018-09-29T00:42:29.205Z,16.97
2018-09-29T00:42:40.962Z,16.97
2018-09-29T00:42:52.759Z,16.98
2018-09-29T00:43:04.507Z,16.98
2018-09-29T00:43:16.267Z,16.97
2018-09-29T00:43:28.012Z,16.97
2018-09-29T00:43:39.767Z,16.96
2018-09-29T00:43:51.529Z,16.97
2018-09-29T00:44:03.280Z,16.98
2018-09-29T00:44:15.080Z,16.96
2018-09-29T00:44:26.826Z,16.97
2018-09-29T00:44:38.573Z,16.96
2018-09-29T00:44:50.363Z,16.95
2018-09-29T00:45:02.164Z,16.95
2018-09-29T00:45:13.931Z,16.96
2018-09-29T00:45:25.704Z,16.95
2018-09-29T00:45:37.459Z,16.95
2018-09-29T00:45:49.241Z,16.95
2018-09-29T00:46:00.994Z,16.95
2018-09-29T00:46:12.741Z,16.95
2018-09-29T00:46:24.486Z,16.96
2018-09-29T00:46:36.239Z,16.95
2018-09-29T00:46:47.975Z,16.95
2018-09-29T00:46:59.726Z,16.96
2018-09-29T00:47:11.757Z,16.97
2018-09-29T00:47:23.507Z,16.96
2018-09-29T00:47:35.395Z,16.95
2018-09-29T00:47:47.142Z,16.95
2018-09-29T00:47:58.896Z,16.96
2018-09-29T00:48:10.643Z,16.96
2018-09-29T00:48:22.405Z,16.95
2018-09-29T00:48:34.387Z,16.96
2018-09-29T00:48:46.157Z,16.96
2018-09-29T00:48:57.920Z,16.96
2018-09-29T00:49:09.686Z,16.98
2018-09-29T00:49:21.458Z,16.97
2018-09-29T00:49:33.218Z,16.97
2018-09-29T00:49:44.979Z,16.97
2018-09-29T00:49:56.765Z,16.98
2018-09-29T00:50:08.524Z,16.98
2018-09-29T00:50:20.271Z,16.98
2018-09-29T00:50:32.017Z,16.97
2018-09-29T00:50:43.771Z,16.98
2018-09-29T00:50:55.536Z,16.97
2018-09-29T00:51:07.271Z,16.97
2018-09-29T00:51:19.051Z,16.97
2018-09-29T00:51:30.811Z,16.97
2018-09-29T00:51:42.559Z,16.96
2018-09-29T00:51:54.352Z,16.97
2018-09-29T00:52:06.118Z,16.96
2018-09-29T00:52:17.871Z,16.97
2018-09-29T00:52:29.640Z,16.96
2018-09-29T00:52:41.584Z,16.96
2018-09-29T00:52:55.934Z,16.98
2018-09-29T00:53:26.423Z,16.98
2018-09-29T00:53:38.173Z,16.97
2018-09-29T00:53:49.934Z,16.97
2018-09-29T00:54:01.690Z,16.97
2018-09-29T00:54:13.460Z,16.99
2018-09-29T00:54:25.212Z,16.98
2018-09-29T00:54:36.988Z,16.98
2018-09-29T00:54:48.735Z,16.97
2018-09-29T00:55:00.509Z,16.98
2018-09-29T00:55:12.260Z,16.97
2018-09-29T00:55:24.032Z,16.98
2018-09-29T00:55:35.780Z,16.97
2018-09-29T00:55:47.524Z,16.98
2018-09-29T00:55:59.262Z,16.98
2018-09-29T00:56:11.024Z,16.97
2018-09-29T00:56:22.781Z,16.97
2018-09-29T00:56:34.531Z,16.97
2018-09-29T00:56:46.275Z,16.98
2018-09-29T00:56:58.030Z,16.97
2018-09-29T00:57:09.768Z,16.97
2018-09-29T00:57:21.523Z,16.97
2018-09-29T00:57:33.288Z,16.96
2018-09-29T00:57:45.047Z,16.96
2018-09-29T00:57:56.823Z,16.96
2018-09-29T00:58:08.562Z,16.96
2018-09-29T00:58:20.321Z,16.96
2018-09-29T00:58:32.217Z,16.96
2018-09-29T00:58:45.364Z,16.98
2018-09-29T00:58:57.168Z,16.98
2018-09-29T00:59:08.922Z,16.97
2018-09-29T00:59:20.689Z,16.96
2018-09-29T00:59:32.451Z,16.96
2018-09-29T00:59:44.205Z,16.95
2018-09-29T00:59:55.957Z,16.96
2018-09-29T01:00:07.869Z,16.96
2018-09-29T01:00:19.635Z,16.96
2018-09-29T01:00:31.395Z,16.95
2018-09-29T01:00:43.291Z,16.96
2018-09-29T01:00:55.038Z,16.95
2018-09-29T01:01:06.792Z,16.96
2018-09-29T01:01:18.548Z,16.95
2018-09-29T01:01:30.312Z,16.96
2018-09-29T01:01:42.068Z,16.95
2018-09-29T01:01:53.818Z,16.96
2018-09-29T01:02:05.581Z,16.94
2018-09-29T01:02:17.347Z,16.94
2018-09-29T01:02:29.099Z,16.93
2018-09-29T01:02:40.880Z,16.95
2018-09-29T01:02:52.964Z,16.95
2018-09-29T01:03:04.736Z,16.94
2018-09-29T01:03:16.502Z,16.94
2018-09-29T01:03:28.267Z,16.93
2018-09-29T01:03:40.031Z,16.94
2018-09-29T01:03:51.784Z,16.94
2018-09-29T01:04:03.548Z,16.96
2018-09-29T01:04:15.322Z,16.95
2018-09-29T01:04:27.081Z,16.95
2018-09-29T01:04:38.846Z,16.94
2018-09-29T01:04:50.605Z,16.95
2018-09-29T01:05:02.518Z,16.94
2018-09-29T01:05:14.299Z,16.94
2018-09-29T01:05:26.226Z,16.94
2018-09-29T01:05:38.066Z,16.95
2018-09-29T01:05:49.835Z,16.94
2018-09-29T01:06:01.607Z,16.94
2018-09-29T01:06:13.354Z,16.94
2018-09-29T01:06:25.109Z,16.95
2018-09-29T01:06:36.855Z,16.94
2018-09-29T01:06:48.701Z,16.94
2018-09-29T01:07:00.447Z,16.94
2018-09-29T01:07:12.219Z,16.95
2018-09-29T01:07:23.962Z,16.93
2018-09-29T01:07:35.726Z,16.93
2018-09-29T01:07:47.477Z,16.93
2018-09-29T01:07:59.227Z,16.93
2018-09-29T01:08:10.983Z,16.92
2018-09-29T01:08:22.752Z,16.93
2018-09-29T01:08:34.519Z,16.93
2018-09-29T01:08:46.275Z,16.93
2018-09-29T01:08:58.078Z,16.93
2018-09-29T01:09:09.847Z,16.92
2018-09-29T01:09:21.594Z,16.92
2018-09-29T01:09:33.357Z,16.94
2018-09-29T01:09:45.110Z,16.94
2018-09-29T01:09:56.872Z,16.93
2018-09-29T01:10:08.632Z,16.93
2018-09-29T01:10:20.423Z,16.93
2018-09-29T01:10:32.175Z,16.93
2018-09-29T01:10:43.924Z,16.93
2018-09-29T01:10:55.668Z,16.93
2018-09-29T01:11:07.426Z,16.93
2018-09-29T01:11:19.173Z,16.93
2018-09-29T01:11:30.923Z,16.94
2018-09-29T01:11:42.684Z,16.94
2018-09-29T01:11:54.438Z,16.93
2018-09-29T01:12:06.196Z,16.93
2018-09-29T01:12:20.368Z,16.93
2018-09-29T01:12:32.115Z,16.93
2018-09-29T01:12:43.854Z,16.93
2018-09-29T01:12:55.759Z,16.94
2018-09-29T01:13:08.387Z,16.95
2018-09-29T01:13:20.134Z,16.94
2018-09-29T01:13:31.964Z,16.94
2018-09-29T01:13:43.742Z,16.93
2018-09-29T01:13:55.505Z,16.93
2018-09-29T01:14:07.253Z,16.93
2018-09-29T01:14:19.039Z,16.92
2018-09-29T01:14:30.787Z,16.92
2018-09-29T01:14:42.531Z,16.92
2018-09-29T01:14:54.290Z,16.93
2018-09-29T01:15:06.151Z,16.92
2018-09-29T01:15:17.930Z,16.94
2018-09-29T01:15:29.697Z,16.93
2018-09-29T01:15:41.445Z,16.94
2018-09-29T01:15:53.202Z,16.93
2018-09-29T01:16:05.243Z,16.93
2018-09-29T01:16:17.014Z,16.92
2018-09-29T01:16:28.793Z,16.93
2018-09-29T01:16:40.551Z,16.94
2018-09-29T01:16:52.325Z,16.93
2018-09-29T01:17:04.053Z,16.93
2018-09-29T01:17:15.992Z,16.92
2018-09-29T01:17:27.881Z,16.92
2018-09-29T01:17:39.627Z,16.92
2018-09-29T01:17:51.380Z,16.92
2018-09-29T01:18:03.298Z,16.92
2018-09-29T01:18:15.049Z,16.92
2018-09-29T01:18:26.994Z,16.92
2018-09-29T01:18:38.746Z,16.92
2018-09-29T01:18:50.505Z,16.91
2018-09-29T01:19:02.280Z,16.92
2018-09-29T01:19:14.065Z,16.93
2018-09-29T01:19:25.822Z,16.92
2018-09-29T01:19:37.623Z,16.92
2018-09-29T01:19:49.379Z,16.92
2018-09-29T01:20:01.225Z,16.92
2018-09-29T01:20:12.989Z,16.91
2018-09-29T01:20:24.742Z,16.91
2018-09-29T01:20:36.499Z,16.91
2018-09-29T01:20:48.271Z,16.91
2018-09-29T01:21:00.166Z,16.91
2018-09-29T01:21:11.925Z,16.92
2018-09-29T01:21:23.677Z,16.91
2018-09-29T01:21:35.436Z,16.92
2018-09-29T01:21:47.200Z,16.92
2018-09-29T01:21:59.037Z,16.93
2018-09-29T01:22:10.811Z,16.92
2018-09-29T01:22:22.783Z,16.92
2018-09-29T01:22:34.538Z,16.91
2018-09-29T01:22:46.279Z,16.92
2018-09-29T01:22:58.023Z,16.91
2018-09-29T01:23:09.779Z,16.91
2018-09-29T01:23:21.509Z,16.92
2018-09-29T01:23:33.262Z,16.92
2018-09-29T01:23:45.113Z,16.91
2018-09-29T01:23:56.879Z,16.92
2018-09-29T01:24:08.641Z,16.92
2018-09-29T01:24:20.386Z,16.92
2018-09-29T01:24:32.145Z,16.92
2018-09-29T01:24:43.902Z,16.91
2018-09-29T01:24:55.682Z,16.92
2018-09-29T01:25:07.443Z,16.93
2018-09-29T01:25:19.384Z,16.92
2018-09-29T01:25:31.153Z,16.92
2018-09-29T01:25:42.904Z,16.92
2018-09-29T01:25:54.655Z,16.93
2018-09-29T01:26:06.584Z,16.92
2018-09-29T01:26:18.339Z,16.93
2018-09-29T01:26:30.102Z,16.93
2018-09-29T01:26:41.850Z,16.92
2018-09-29T01:26:53.648Z,16.92
2018-09-29T01:27:05.401Z,16.92
2018-09-29T01:27:17.142Z,16.92
2018-09-29T01:27:28.887Z,16.92
2018-09-29T01:27:40.631Z,16.93
2018-09-29T01:27:52.381Z,16.92
2018-09-29T01:28:04.136Z,16.92
2018-09-29T01:28:15.918Z,16.91
2018-09-29T01:28:27.681Z,16.92
2018-09-29T01:28:39.445Z,16.92
2018-09-29T01:28:51.191Z,16.93
2018-09-29T01:29:02.942Z,16.93
2018-09-29T01:29:14.695Z,16.93
2018-09-29T01:29:26.459Z,16.92
2018-09-29T01:29:38.232Z,16.93
2018-09-29T01:29:49.979Z,16.93
2018-09-29T01:30:01.874Z,16.92
2018-09-29T01:30:13.624Z,16.92
2018-09-29T01:30:25.406Z,16.92
2018-09-29T01:30:37.171Z,16.92
2018-09-29T01:30:48.928Z,16.92
2018-09-29T01:31:00.679Z,16.92
2018-09-29T01:31:12.423Z,16.93
2018-09-29T01:31:24.178Z,16.92
2018-09-29T01:31:35.930Z,16.92
2018-09-29T01:31:47.659Z,16.93
2018-09-29T01:31:59.410Z,16.92
2018-09-29T01:32:11.187Z,16.92
2018-09-29T01:32:23.031Z,16.91
2018-09-29T01:32:34.812Z,16.91
2018-09-29T01:32:46.643Z,16.92
2018-09-29T01:32:58.409Z,16.92
2018-09-29T01:33:10.299Z,16.91
2018-09-29T01:33:22.061Z,16.92
2018-09-29T01:33:33.851Z,16.91
2018-09-29T01:33:45.607Z,16.91
2018-09-29T01:33:57.359Z,16.91
2018-09-29T01:34:09.159Z,16.91
2018-09-29T01:34:20.948Z,16.92
2018-09-29T01:34:32.702Z,16.91
2018-09-29T01:34:44.447Z,16.91
2018-09-29T01:34:56.200Z,16.91
2018-09-29T01:35:07.965Z,16.92
2018-09-29T01:35:19.803Z,16.92
2018-09-29T01:35:31.539Z,16.90
2018-09-29T01:35:43.345Z,16.91
2018-09-29T01:35:55.190Z,16.91
2018-09-29T01:36:06.944Z,16.92
2018-09-29T01:36:18.733Z,16.91
2018-09-29T01:36:30.493Z,16.92
2018-09-29T01:36:42.391Z,16.92
2018-09-29T01:36:54.126Z,16.93
2018-09-29T01:37:05.874Z,16.93
2018-09-29T01:37:17.731Z,16.92
2018-09-29T01:37:29.496Z,16.92
2018-09-29T01:37:41.377Z,16.94
2018-09-29T01:37:53.277Z,16.93
2018-09-29T01:38:05.051Z,16.92
2018-09-29T01:38:16.801Z,16.92
2018-09-29T01:38:28.574Z,16.93
2018-09-29T01:38:40.320Z,16.94
2018-09-29T01:38:52.259Z,16.93
2018-09-29T01:39:04.095Z,16.93
2018-09-29T01:39:15.868Z,16.92
2018-09-29T01:39:27.848Z,16.92
2018-09-29T01:39:39.704Z,16.92
2018-09-29T01:39:51.477Z,16.92
2018-09-29T01:40:03.427Z,16.92
2018-09-29T01:40:15.413Z,16.93
2018-09-29T01:40:27.154Z,16.92
2018-09-29T01:40:38.917Z,16.92
2018-09-29T01:40:50.691Z,16.92
2018-09-29T01:41:02.623Z,16.92
2018-09-29T01:41:14.411Z,16.92
2018-09-29T01:41:26.172Z,16.92
2018-09-29T01:41:38.099Z,16.92
2018-09-29T01:41:49.851Z,16.92
2018-09-29T01:42:01.593Z,16.92
2018-09-29T01:42:13.335Z,16.92
2018-09-29T01:42:25.089Z,16.92
2018-09-29T01:42:36.846Z,16.93
2018-09-29T01:42:48.805Z,16.92
2018-09-29T01:43:00.566Z,16.92
2018-09-29T01:43:12.321Z,16.91
2018-09-29T01:43:24.073Z,16.92
2018-09-29T01:43:35.820Z,16.91
2018-09-29T01:43:47.564Z,16.92
2018-09-29T01:43:59.359Z,16.93
2018-09-29T01:44:11.125Z,16.93
2018-09-29T01:44:22.892Z,16.92
2018-09-29T01:44:34.673Z,16.93
2018-09-29T01:44:46.447Z,16.93
2018-09-29T01:44:58.182Z,16.93
2018-09-29T01:45:09.963Z,16.94
2018-09-29T01:45:21.818Z,16.94
2018-09-29T01:45:33.623Z,16.93
2018-09-29T01:45:45.372Z,16.93
2018-09-29T01:45:57.148Z,16.94
2018-09-29T01:46:08.900Z,16.94
2018-09-29T01:46:20.656Z,16.94
2018-09-29T01:46:32.626Z,16.94
2018-09-29T01:46:44.374Z,16.94
2018-09-29T01:46:56.139Z,16.93
2018-09-29T01:47:07.958Z,16.92
2018-09-29T01:47:19.694Z,16.94
2018-09-29T01:47:31.454Z,16.93
2018-09-29T01:47:43.251Z,16.92
2018-09-29T01:47:55.011Z,16.92
2018-09-29T01:48:06.790Z,16.93
2018-09-29T01:48:18.542Z,16.91
2018-09-29T01:48:30.310Z,16.91
2018-09-29T01:48:42.054Z,16.91
2018-09-29T01:48:53.803Z,16.91
2018-09-29T01:49:05.560Z,16.91
2018-09-29T01:49:17.317Z,16.90
2018-09-29T01:49:29.067Z,16.92
2018-09-29T01:49:41.740Z,16.91
2018-09-29T01:49:53.487Z,16.91
2018-09-29T01:50:05.242Z,16.91
2018-09-29T01:50:16.984Z,16.91
2018-09-29T01:50:28.734Z,16.91
2018-09-29T01:50:40.496Z,16.90
2018-09-29T01:50:52.248Z,16.91
2018-09-29T01:51:04.032Z,16.90
2018-09-29T01:51:15.791Z,16.90
2018-09-29T01:51:27.538Z,16.90
2018-09-29T01:51:39.310Z,16.91
2018-09-29T01:51:51.049Z,16.90
2018-09-29T01:52:02.790Z,16.91
2018-09-29T01:52:14.571Z,16.90
2018-09-29T01:52:26.348Z,16.90
2018-09-29T01:52:38.094Z,16.91
2018-09-29T01:52:49.848Z,16.92
2018-09-29T01:53:01.593Z,16.90
2018-09-29T01:53:13.377Z,16.91
2018-09-29T01:53:25.148Z,16.91
2018-09-29T01:53:36.920Z,16.91
2018-09-29T01:53:48.658Z,16.92
2018-09-29T01:54:00.526Z,16.91
2018-09-29T01:54:12.274Z,16.91
2018-09-29T01:54:24.032Z,16.91
2018-09-29T01:54:35.783Z,16.91
2018-09-29T01:54:47.563Z,16.92
2018-09-29T01:54:59.624Z,16.92
2018-09-29T01:55:11.370Z,16.91
2018-09-29T01:55:23.147Z,16.91
2018-09-29T01:55:35.061Z,16.90
2018-09-29T01:55:46.807Z,16.91
2018-09-29T01:55:58.552Z,16.91
2018-09-29T01:56:10.343Z,16.92
2018-09-29T01:56:22.090Z,16.92
2018-09-29T01:56:33.844Z,16.91
2018-09-29T01:56:45.590Z,16.91
2018-09-29T01:56:57.358Z,16.91
2018-09-29T01:57:09.148Z,16.92
2018-09-29T01:57:20.899Z,16.91
2018-09-29T01:57:32.656Z,16.92
2018-09-29T01:57:44.446Z,16.91
2018-09-29T01:57:56.216Z,16.91
2018-09-29T01:58:07.985Z,16.93
2018-09-29T01:58:19.731Z,16.93
2018-09-29T01:58:31.471Z,16.93
2018-09-29T01:58:43.221Z,16.92
2018-09-29T01:58:54.985Z,16.94
2018-09-29T01:59:06.760Z,16.93
2018-09-29T01:59:18.520Z,16.92
2018-09-29T01:59:30.285Z,16.93
2018-09-29T01:59:42.060Z,16.93
2018-09-29T01:59:53.802Z,16.92
2018-09-29T02:00:05.559Z,16.93
2018-09-29T02:00:17.302Z,16.93
2018-09-29T02:00:29.050Z,16.92
2018-09-29T02:00:40.807Z,16.93
2018-09-29T02:00:52.577Z,16.93
2018-09-29T02:01:04.360Z,16.93
2018-09-29T02:01:16.160Z,16.91
2018-09-29T02:01:27.926Z,16.92
2018-09-29T02:01:39.671Z,16.92
2018-09-29T02:01:51.432Z,16.91
2018-09-29T02:02:03.179Z,16.91
2018-09-29T02:02:14.915Z,16.91
2018-09-29T02:02:26.682Z,16.91
2018-09-29T02:02:38.442Z,16.92
2018-09-29T02:02:50.198Z,16.92
2018-09-29T02:03:07.291Z,16.92
2018-09-29T02:03:19.056Z,16.91
2018-09-29T02:03:30.803Z,16.90
2018-09-29T02:03:42.571Z,16.91
2018-09-29T02:03:54.314Z,16.91
2018-09-29T02:04:06.076Z,16.90
2018-09-29T02:04:17.826Z,16.90
2018-09-29T02:04:29.570Z,16.90
2018-09-29T02:04:41.310Z,16.90
2018-09-29T02:04:54.165Z,16.89
2018-09-29T02:05:05.926Z,16.90
2018-09-29T02:05:17.682Z,16.91
2018-09-29T02:05:29.427Z,16.91
2018-09-29T02:05:42.485Z,16.92
2018-09-29T02:05:54.234Z,16.91
2018-09-29T02:06:05.979Z,16.91
2018-09-29T02:06:17.749Z,16.91
2018-09-29T02:06:29.514Z,16.92
2018-09-29T02:06:41.255Z,16.91
2018-09-29T02:06:53.023Z,16.91
2018-09-29T02:07:04.800Z,16.90
2018-09-29T02:07:16.552Z,16.91
2018-09-29T02:07:28.294Z,16.91
2018-09-29T02:07:40.044Z,16.90
2018-09-29T02:07:51.822Z,16.90
2018-09-29T02:08:03.610Z,16.89
2018-09-29T02:08:15.320Z,16.89
2018-09-29T02:08:27.066Z,16.89
2018-09-29T02:08:38.827Z,16.91
2018-09-29T02:08:50.582Z,16.90
2018-09-29T02:09:02.339Z,16.89
2018-09-29T02:09:14.103Z,16.89
2018-09-29T02:09:25.856Z,16.89
2018-09-29T02:09:37.627Z,16.89
2018-09-29T02:09:49.604Z,16.89
2018-09-29T02:10:01.364Z,16.90
2018-09-29T02:10:13.127Z,16.91
2018-09-29T02:10:24.871Z,16.90
2018-09-29T02:10:36.900Z,16.90
2018-09-29T02:10:48.655Z,16.90
2018-09-29T02:11:00.432Z,16.91
2018-09-29T02:11:12.210Z,16.91
2018-09-29T02:11:23.991Z,16.90
2018-09-29T02:11:35.742Z,16.91
2018-09-29T02:11:47.507Z,16.89
2018-09-29T02:11:59.259Z,16.89
2018-09-29T02:12:11.015Z,16.91
2018-09-29T02:12:22.772Z,16.90
2018-09-29T02:12:34.519Z,16.90
2018-09-29T02:12:46.271Z,16.90
2018-09-29T02:12:58.031Z,16.89
2018-09-29T02:13:09.798Z,16.91
2018-09-29T02:13:21.555Z,16.90
2018-09-29T02:13:33.294Z,16.90
2018-09-29T02:13:45.027Z,16.90
2018-09-29T02:13:56.780Z,16.90
2018-09-29T02:14:08.523Z,16.90
2018-09-29T02:14:20.266Z,16.91
2018-09-29T02:14:32.030Z,16.91
2018-09-29T02:14:43.798Z,16.91
2018-09-29T02:14:55.539Z,16.91
2018-09-29T02:15:07.283Z,16.90
2018-09-29T02:15:19.039Z,16.91
2018-09-29T02:15:31.494Z,16.91
2018-09-29T02:15:43.236Z,16.91
2018-09-29T02:15:54.995Z,16.91
2018-09-29T02:16:06.730Z,16.90
2018-09-29T02:16:18.481Z,16.90
2018-09-29T02:16:30.260Z,16.91
2018-09-29T02:16:42.016Z,16.90
2018-09-29T02:16:53.762Z,16.90
2018-09-29T02:17:05.522Z,16.91
2018-09-29T02:17:17.477Z,16.91
2018-09-29T02:17:29.226Z,16.89
2018-09-29T02:17:40.974Z,16.90
2018-09-29T02:17:52.752Z,16.90
2018-09-29T02:18:04.510Z,16.90
2018-09-29T02:18:16.285Z,16.90
2018-09-29T02:18:28.068Z,16.89
2018-09-29T02:18:40.024Z,16.90
2018-09-29T02:18:51.784Z,16.90
2018-09-29T02:19:03.540Z,16.91
2018-09-29T02:19:15.326Z,16.91
2018-09-29T02:19:27.075Z,16.90
2018-09-29T02:19:38.831Z,16.91
2018-09-29T02:19:50.592Z,16.92
2018-09-29T02:20:02.335Z,16.93
2018-09-29T02:20:14.074Z,16.91
2018-09-29T02:20:26.013Z,16.92
2018-09-29T02:20:37.770Z,16.92
2018-09-29T02:20:49.506Z,16.92
2018-09-29T02:21:01.265Z,16.92
2018-09-29T02:21:13.039Z,16.92
2018-09-29T02:21:24.783Z,16.91
2018-09-29T02:21:36.556Z,16.91
2018-09-29T02:21:48.311Z,16.92
2018-09-29T02:22:00.080Z,16.91
2018-09-29T02:22:11.825Z,16.92
2018-09-29T02:22:23.569Z,16.90
2018-09-29T02:22:35.306Z,16.91
2018-09-29T02:22:47.099Z,16.90
2018-09-29T02:22:58.873Z,16.90
2018-09-29T02:23:10.613Z,16.91
2018-09-29T02:23:22.367Z,16.91
2018-09-29T02:23:34.117Z,16.90
2018-09-29T02:23:45.877Z,16.90
2018-09-29T02:23:57.655Z,16.90
2018-09-29T02:24:09.406Z,16.91
2018-09-29T02:24:21.168Z,16.90
2018-09-29T02:24:32.924Z,16.91
2018-09-29T02:24:44.668Z,16.90
2018-09-29T02:24:56.429Z,16.89
2018-09-29T02:25:08.183Z,16.91
2018-09-29T02:25:19.944Z,16.90
2018-09-29T02:25:31.683Z,16.91
2018-09-29T02:25:43.448Z,16.89
2018-09-29T02:25:55.199Z,16.90
2018-09-29T02:26:06.964Z,16.91
2018-09-29T02:26:18.755Z,16.90
2018-09-29T02:26:30.507Z,16.90
2018-09-29T02:26:42.306Z,16.91
2018-09-29T02:26:54.057Z,16.90
2018-09-29T02:27:05.831Z,16.91
2018-09-29T02:27:17.579Z,16.90
2018-09-29T02:27:29.329Z,16.90
2018-09-29T02:27:41.075Z,16.90
2018-09-29T02:27:52.830Z,16.90
2018-09-29T02:28:04.578Z,16.89
2018-09-29T02:28:16.336Z,16.90
2018-09-29T02:28:28.087Z,16.90
2018-09-29T02:28:39.838Z,16.90
2018-09-29T02:28:51.713Z,16.90
2018-09-29T02:29:03.490Z,16.90
2018-09-29T02:29:15.188Z,16.90
2018-09-29T02:29:26.973Z,16.89
2018-09-29T02:30:42.275Z,16.89
2018-09-29T02:30:54.036Z,16.89
2018-09-29T02:31:05.787Z,16.90
2018-09-29T02:31:17.555Z,16.89
2018-09-29T02:31:29.296Z,16.91
2018-09-29T02:31:41.049Z,16.90
2018-09-29T02:31:52.848Z,16.91
2018-09-29T02:32:04.602Z,16.90
2018-09-29T02:32:16.346Z,16.89
2018-09-29T02:32:28.082Z,16.89
2018-09-29T02:32:39.832Z,16.91
2018-09-29T02:32:51.607Z,16.92
2018-09-29T02:33:03.353Z,16.91
2018-09-29T02:33:15.117Z,16.91